createdAt,value
2022-10-19T00:00:47.955Z,7.80
2022-10-19T00:03:15.771Z,8.90
2022-10-19T00:05:44.585Z,9.07
2022-10-19T00:08:10.995Z,10.00
2022-10-19T00:10:40.282Z,10.13
2022-10-19T00:13:06.719Z,10.43
2022-10-19T00:15:33.157Z,9.20
2022-10-19T00:17:59.580Z,9.07
2022-10-19T00:20:26.016Z,10.07
2022-10-19T00:22:52.468Z,9.45
2022-10-19T00:25:18.928Z,8.93
2022-10-19T00:27:45.401Z,9.57
2022-10-19T00:30:11.848Z,9.85
2022-10-19T00:32:38.284Z,9.70
2022-10-19T00:35:05.049Z,9.55
2022-10-19T00:37:31.593Z,9.85
2022-10-19T00:39:58.099Z,8.57
2022-10-19T00:42:24.946Z,9.32
2022-10-19T00:44:51.285Z,8.15
2022-10-19T00:47:20.719Z,10.20
2022-10-19T00:52:17.080Z,9.25
2022-10-19T00:54:47.365Z,9.40
2022-10-19T00:57:14.990Z,10.27
2022-10-19T00:59:45.105Z,9.40
2022-10-19T01:02:11.888Z,9.23
2022-10-19T01:04:42.005Z,9.02
2022-10-19T01:07:09.146Z,8.40
2022-10-19T01:09:35.669Z,8.23
2022-10-19T01:12:40.741Z,8.82
2022-10-19T01:15:29.205Z,8.27
2022-10-19T01:18:07.717Z,8.10
2022-10-19T01:20:36.991Z,8.02
2022-10-19T01:23:28.287Z,7.93
2022-10-19T01:26:13.326Z,8.48
2022-10-19T01:29:10.939Z,8.70
2022-10-19T01:32:00.013Z,8.40
2022-10-19T01:34:34.505Z,7.68
2022-10-19T01:37:24.466Z,8.23
2022-10-19T01:40:02.042Z,11.23
2022-10-19T01:42:48.657Z,10.73
2022-10-19T01:45:17.550Z,12.88
2022-10-19T01:48:03.844Z,12.18
2022-10-19T01:50:40.982Z,10.82
2022-10-19T01:53:10.777Z,11.25
2022-10-19T01:55:42.700Z,10.40
2022-10-19T01:58:13.196Z,10.25
2022-10-19T02:00:43.820Z,10.25
2022-10-19T02:03:11.986Z,9.88
2022-10-19T02:05:40.598Z,9.07
2022-10-19T02:08:12.488Z,9.07
2022-10-19T02:10:41.601Z,8.25
2022-10-19T02:13:09.278Z,9.35
2022-10-19T02:15:38.576Z,9.18
2022-10-19T02:18:07.042Z,9.15
2022-10-19T02:20:35.278Z,9.00
2022-10-19T02:23:04.756Z,9.15
2022-10-19T02:27:58.223Z,7.25
2022-10-19T02:30:24.727Z,7.07
2022-10-19T02:32:51.575Z,6.93
2022-10-19T02:35:18.279Z,7.13
2022-10-19T02:37:45.175Z,7.20
2022-10-19T02:40:12.516Z,6.80
2022-10-19T02:42:44.228Z,6.47
2022-10-19T02:45:19.805Z,6.50
2022-10-19T02:48:01.034Z,6.25
2022-10-19T02:50:27.873Z,7.03
2022-10-19T02:52:54.370Z,6.07
2022-10-19T02:55:20.916Z,6.20
2022-10-19T02:57:47.370Z,6.55
2022-10-19T03:00:13.869Z,6.18
2022-10-19T03:02:40.347Z,5.88
2022-10-19T03:05:08.334Z,6.25
2022-10-19T03:07:37.587Z,10.65
2022-10-19T03:10:06.958Z,11.75
2022-10-19T03:12:33.418Z,10.52
2022-10-19T03:15:02.082Z,10.13
2022-10-19T03:17:28.520Z,10.43
2022-10-19T03:19:54.982Z,9.57
2022-10-19T03:22:21.394Z,7.75
2022-10-19T03:24:47.887Z,8.18
2022-10-19T03:27:14.553Z,7.53
2022-10-19T03:29:40.983Z,6.47
2022-10-19T03:32:07.722Z,6.15
2022-10-19T03:34:34.176Z,7.00
2022-10-19T03:37:00.650Z,7.05
2022-10-19T03:39:27.194Z,12.07
2022-10-19T03:41:56.010Z,11.23
2022-10-19T03:44:24.679Z,12.40
2022-10-19T03:46:53.498Z,10.45
2022-10-19T03:49:21.905Z,10.85
2022-10-19T03:51:50.989Z,10.43
2022-10-19T03:54:22.516Z,10.20
2022-10-19T03:56:52.831Z,9.57
2022-10-19T03:59:19.525Z,9.63
2022-10-19T04:01:46.360Z,10.40
2022-10-19T04:04:16.785Z,9.50
2022-10-19T04:06:46.204Z,10.15
2022-10-19T04:11:40.266Z,8.43
2022-10-19T04:14:06.875Z,8.88
2022-10-19T04:16:33.673Z,8.10
2022-10-19T04:19:00.426Z,6.68
2022-10-19T04:21:48.100Z,6.63
2022-10-19T04:24:17.481Z,6.60
2022-10-19T04:26:46.829Z,6.15
2022-10-19T04:29:14.056Z,6.65
2022-10-19T04:31:40.854Z,6.90
2022-10-19T04:34:07.901Z,6.07
2022-10-19T04:36:34.793Z,6.88
2022-10-19T04:39:01.282Z,6.25
2022-10-19T04:41:27.731Z,5.50
2022-10-19T04:44:00.789Z,6.20
2022-10-19T04:46:28.648Z,6.20
2022-10-19T04:48:59.335Z,5.68
2022-10-19T04:51:35.780Z,6.47
2022-10-19T04:54:03.340Z,7.40
2022-10-19T04:56:32.139Z,5.80
2022-10-19T04:58:59.987Z,4.87
2022-10-19T05:01:28.844Z,6.35
2022-10-19T05:06:24.516Z,6.40
2022-10-19T05:08:51.009Z,6.72
2022-10-19T05:11:18.586Z,6.97
2022-10-19T05:13:45.895Z,6.25
2022-10-19T05:16:15.393Z,5.80
2022-10-19T05:21:13.586Z,6.70
2022-10-19T05:23:41.984Z,7.35
2022-10-19T05:26:14.514Z,7.13
2022-10-19T05:28:41.221Z,7.72
2022-10-19T05:31:19.401Z,8.93
2022-10-19T05:33:46.426Z,9.65
2022-10-19T05:36:21.211Z,9.25
2022-10-19T05:38:49.855Z,7.88
2022-10-19T05:41:17.390Z,8.10
2022-10-19T05:43:43.985Z,7.65
2022-10-19T05:46:14.786Z,8.50
2022-10-19T05:48:41.401Z,6.57
2022-10-19T05:51:11.303Z,8.48
2022-10-19T05:56:06.826Z,9.25
2022-10-19T05:58:34.083Z,9.05
2022-10-19T06:01:02.915Z,9.32
2022-10-19T06:03:30.053Z,9.25
2022-10-19T06:05:57.366Z,11.18
2022-10-19T06:08:24.797Z,9.88
2022-10-19T06:10:51.559Z,9.88
2022-10-19T06:13:19.493Z,9.80
2022-10-19T06:15:50.772Z,10.13
2022-10-19T06:18:17.407Z,11.07
2022-10-19T06:20:48.340Z,11.23
2022-10-19T06:23:14.828Z,11.73
2022-10-19T06:25:41.566Z,10.57
2022-10-19T06:28:12.547Z,11.88
2022-10-19T06:30:42.525Z,11.95
2022-10-19T06:33:09.012Z,11.32
2022-10-19T06:35:35.530Z,12.23
2022-10-19T06:38:01.986Z,11.52
2022-10-19T06:40:28.540Z,11.55
2022-10-19T06:45:25.137Z,11.18
2022-10-19T06:47:51.874Z,12.15
2022-10-19T06:50:23.050Z,12.45
2022-10-19T06:52:49.537Z,12.23
2022-10-19T06:55:17.775Z,12.60
2022-10-19T06:57:45.147Z,11.35
2022-10-19T07:00:14.402Z,13.07
2022-10-19T07:02:43.774Z,10.95
2022-10-19T07:05:10.551Z,10.70
2022-10-19T07:07:40.001Z,11.75
2022-10-19T07:12:35.472Z,8.68
2022-10-19T07:15:12.931Z,11.32
2022-10-19T07:17:39.501Z,10.80
2022-10-19T07:20:06.466Z,10.68
2022-10-19T07:22:33.043Z,10.55
2022-10-19T07:24:59.607Z,11.13
2022-10-19T07:27:26.122Z,10.90
2022-10-19T07:29:52.660Z,9.82
2022-10-19T07:32:19.263Z,10.38
2022-10-19T07:34:51.372Z,10.18
2022-10-19T07:37:18.144Z,8.77
2022-10-19T07:39:51.154Z,8.95
2022-10-19T07:42:17.704Z,8.13
2022-10-19T07:44:46.432Z,8.32
2022-10-19T07:47:15.503Z,8.23
2022-10-19T07:49:42.086Z,8.55
2022-10-19T07:52:11.290Z,8.68
2022-10-19T07:54:41.189Z,9.30
2022-10-19T07:57:07.820Z,8.93
2022-10-19T07:59:38.039Z,8.90
2022-10-19T08:02:05.074Z,9.15
2022-10-19T08:04:58.920Z,8.15
2022-10-19T08:07:21.311Z,7.75
2022-10-19T08:09:54.279Z,8.20
2022-10-19T08:12:21.499Z,7.47
2022-10-19T08:14:48.338Z,8.43
2022-10-19T08:17:17.523Z,7.97
2022-10-19T08:19:50.914Z,7.80
2022-10-19T08:22:18.862Z,7.22
2022-10-19T08:24:45.591Z,6.78
2022-10-19T08:27:12.275Z,6.00
2022-10-19T08:29:38.885Z,6.20
2022-10-19T08:32:05.480Z,6.55
2022-10-19T08:34:39.894Z,5.40
2022-10-19T08:50:42.401Z,5.15
2022-10-19T08:53:16.756Z,5.32
2022-10-19T08:56:04.907Z,5.30
2022-10-19T08:58:54.913Z,4.90
2022-10-19T09:01:48.907Z,5.63
2022-10-19T09:04:25.175Z,5.57
2022-10-19T09:06:58.046Z,5.35
2022-10-19T09:09:25.840Z,5.72
2022-10-19T09:11:56.483Z,5.95
2022-10-19T09:14:31.797Z,6.15
2022-10-19T09:17:03.771Z,5.20
2022-10-19T09:19:36.829Z,5.70
2022-10-19T09:22:32.192Z,5.35
2022-10-19T09:25:24.803Z,5.97
2022-10-19T09:28:21.511Z,6.45
2022-10-19T09:30:51.544Z,6.00
2022-10-19T09:33:36.444Z,6.28
2022-10-19T09:36:10.410Z,6.38
2022-10-19T09:38:46.073Z,6.32
2022-10-19T09:41:33.935Z,6.05
2022-10-19T09:44:03.696Z,6.40
2022-10-19T09:46:31.485Z,7.03
2022-10-19T09:49:04.027Z,7.45
2022-10-19T09:51:52.426Z,7.97
2022-10-19T09:54:37.335Z,7.38
2022-10-19T09:57:05.936Z,7.65
2022-10-19T09:59:39.210Z,7.65
2022-10-19T10:02:06.283Z,8.32
2022-10-19T10:04:36.426Z,7.43
2022-10-19T10:07:05.080Z,6.75
2022-10-19T10:09:48.990Z,7.32
2022-10-19T10:12:16.195Z,6.95
2022-10-19T10:14:50.955Z,8.15
2022-10-19T10:17:35.987Z,7.07
2022-10-19T10:20:20.375Z,7.30
2022-10-19T10:23:29.279Z,7.47
2022-10-19T10:28:27.589Z,7.38
2022-10-19T10:31:13.626Z,6.63
2022-10-19T10:33:46.202Z,7.97
2022-10-19T10:36:13.259Z,7.22
2022-10-19T10:38:46.851Z,6.97
2022-10-19T10:46:37.125Z,7.35
2022-10-19T10:49:18.774Z,7.97
2022-10-19T10:51:52.887Z,8.15
2022-10-19T10:54:30.666Z,7.63
2022-10-19T10:57:06.800Z,6.47
2022-10-19T10:59:43.125Z,6.63
2022-10-19T11:02:30.743Z,6.45
2022-10-19T11:05:13.161Z,5.97
2022-10-19T11:07:44.829Z,7.25
2022-10-19T11:10:21.682Z,6.90
2022-10-19T11:12:56.247Z,6.15
2022-10-19T11:18:13.933Z,6.18
2022-10-19T11:20:51.255Z,5.13
2022-10-19T11:23:54.007Z,6.28
2022-10-19T11:26:26.713Z,6.05
2022-10-19T11:29:21.574Z,5.93
2022-10-19T11:31:51.251Z,4.90
2022-10-19T11:34:46.630Z,5.20
2022-10-19T11:38:17.503Z,4.80
2022-10-19T11:40:54.144Z,5.50
2022-10-19T11:43:41.326Z,4.88
2022-10-19T11:46:30.112Z,5.10
2022-10-19T11:49:01.714Z,4.50
2022-10-19T11:51:53.345Z,5.40
2022-10-19T11:54:33.274Z,4.90
2022-10-19T11:57:08.385Z,4.45
2022-10-19T12:00:00.225Z,4.47
2022-10-19T12:02:54.038Z,4.65
2022-10-19T12:05:46.749Z,4.70
2022-10-19T12:08:41.762Z,4.57
2022-10-19T12:11:27.375Z,4.80
2022-10-19T12:14:03.075Z,4.50
2022-10-19T12:16:40.361Z,4.88
2022-10-19T12:19:26.298Z,4.30
2022-10-19T12:22:01.513Z,4.50
2022-10-19T12:24:32.772Z,5.57
2022-10-19T12:27:06.044Z,4.72
2022-10-19T12:29:41.853Z,4.35
2022-10-19T12:32:14.407Z,4.80
2022-10-19T12:35:03.764Z,4.78
2022-10-19T12:40:27.874Z,4.35
2022-10-19T12:43:08.926Z,4.35
2022-10-19T12:45:51.995Z,5.20
2022-10-19T12:48:32.508Z,4.32
2022-10-19T12:51:03.045Z,4.68
2022-10-19T12:53:44.515Z,4.63
2022-10-19T12:56:13.534Z,5.35
2022-10-19T12:58:56.481Z,4.40
2022-10-19T13:01:28.074Z,4.05
2022-10-19T13:04:16.758Z,4.05
2022-10-19T13:07:12.796Z,4.77
2022-10-19T13:09:49.204Z,4.63
2022-10-19T13:12:21.298Z,5.22
2022-10-19T13:15:13.339Z,4.28
2022-10-19T13:17:52.257Z,3.85
2022-10-19T13:20:18.831Z,4.07
2022-10-19T13:22:50.975Z,4.47
2022-10-19T13:25:35.021Z,4.68
2022-10-19T13:28:07.616Z,4.55
2022-10-19T13:31:03.423Z,4.32
2022-10-19T13:33:46.481Z,4.57
2022-10-19T13:36:13.974Z,4.68
2022-10-19T13:38:55.841Z,3.97
2022-10-19T13:41:27.979Z,4.95
2022-10-19T13:44:12.102Z,4.95
2022-10-19T13:46:53.994Z,4.57
2022-10-19T13:49:41.569Z,4.32
2022-10-19T13:52:47.490Z,4.10
2022-10-19T13:55:28.527Z,4.63
2022-10-19T13:58:32.582Z,3.95
2022-10-19T14:01:21.702Z,4.50
2022-10-19T14:04:10.630Z,4.82
2022-10-19T14:06:47.295Z,3.75
2022-10-19T14:09:35.674Z,3.88
2022-10-19T14:12:18.334Z,3.95
2022-10-19T14:14:45.413Z,3.63
2022-10-19T14:17:24.576Z,3.47
2022-10-19T14:19:56.985Z,3.80
2022-10-19T14:22:36.070Z,3.38
2022-10-19T14:25:14.759Z,3.53
2022-10-19T14:27:41.629Z,2.88
2022-10-19T14:30:22.539Z,3.00
2022-10-19T14:32:49.747Z,2.58
2022-10-19T14:35:25.622Z,2.75
2022-10-19T14:37:54.890Z,3.10
2022-10-19T14:40:26.355Z,3.28
2022-10-19T14:42:56.865Z,2.70
2022-10-19T14:45:29.517Z,2.70
2022-10-19T14:47:59.030Z,2.95
2022-10-19T14:53:18.040Z,3.00
2022-10-19T14:55:45.528Z,2.83
2022-10-19T14:58:19.250Z,2.92
2022-10-19T15:00:49.191Z,2.92
2022-10-19T15:03:26.412Z,2.70
2022-10-19T15:06:00.347Z,2.80
2022-10-19T15:08:39.951Z,3.22
2022-10-19T15:11:07.865Z,3.08
2022-10-19T15:13:41.472Z,2.95
2022-10-19T15:24:24.180Z,3.08
2022-10-19T15:27:58.562Z,2.95
2022-10-19T15:30:45.618Z,2.92
2022-10-19T15:33:15.364Z,2.85
2022-10-19T15:35:44.695Z,2.90
2022-10-19T15:38:15.909Z,3.13
2022-10-19T15:40:49.177Z,3.10
2022-10-19T15:43:30.987Z,2.78
2022-10-19T15:46:05.171Z,2.67
2022-10-19T15:48:41.942Z,3.50
2022-10-19T15:51:23.476Z,3.45
2022-10-19T15:53:58.975Z,3.30
2022-10-19T15:56:27.588Z,2.97
2022-10-19T15:59:04.495Z,3.60
2022-10-19T16:01:36.433Z,3.83
2022-10-19T16:04:02.992Z,3.28
2022-10-19T16:06:32.198Z,3.50
2022-10-19T16:09:00.387Z,3.47
2022-10-19T16:11:31.784Z,3.60
2022-10-19T16:13:59.451Z,3.08
2022-10-19T16:16:32.354Z,3.83
2022-10-19T16:19:00.244Z,3.42
2022-10-19T16:21:30.465Z,3.60
2022-10-19T16:23:57.199Z,3.75
2022-10-19T16:26:26.037Z,3.15
2022-10-19T16:28:54.352Z,3.63
2022-10-19T16:31:21.558Z,3.53
2022-10-19T16:33:48.135Z,3.80
2022-10-19T16:36:14.800Z,3.47
2022-10-19T16:38:41.380Z,3.28
2022-10-19T16:41:10.577Z,3.92
2022-10-19T16:43:39.661Z,3.67
2022-10-19T16:46:07.752Z,4.20
2022-10-19T16:48:38.193Z,3.47
2022-10-19T16:51:07.682Z,3.72
2022-10-19T16:56:12.715Z,3.70
2022-10-19T16:58:40.610Z,4.40
2022-10-19T17:01:17.629Z,3.83
2022-10-19T17:03:48.482Z,3.85
2022-10-19T17:06:17.281Z,2.90
2022-10-19T17:09:14.761Z,3.83
2022-10-19T17:11:35.965Z,3.88
2022-10-19T17:14:08.482Z,4.00
2022-10-19T17:16:36.892Z,3.50
2022-10-19T17:19:05.656Z,4.07
2022-10-19T17:21:40.999Z,4.38
2022-10-19T17:24:14.693Z,4.03
2022-10-19T17:26:47.662Z,4.55
2022-10-19T17:29:14.313Z,5.07
2022-10-19T17:31:41.805Z,4.40
2022-10-19T17:34:09.077Z,4.82
2022-10-19T17:39:17.842Z,5.00
2022-10-19T17:41:45.827Z,5.25
2022-10-19T17:44:12.533Z,4.78
2022-10-19T17:46:41.415Z,4.95
2022-10-19T17:49:08.062Z,5.07
2022-10-19T17:51:36.000Z,4.53
2022-10-19T17:54:07.750Z,5.03
2022-10-19T17:56:35.230Z,5.07
2022-10-19T17:59:11.564Z,5.88
2022-10-19T18:01:38.387Z,4.35
2022-10-19T18:04:06.458Z,4.43
2022-10-19T18:06:35.445Z,4.40
2022-10-19T18:09:05.559Z,4.45
2022-10-19T18:11:44.656Z,4.25
2022-10-19T18:16:54.621Z,4.80
2022-10-19T18:19:25.783Z,3.85
2022-10-19T18:21:53.104Z,4.40
2022-10-19T18:24:21.211Z,4.40
2022-10-19T18:26:49.689Z,4.60
2022-10-19T18:29:20.815Z,4.03
2022-10-19T18:31:53.539Z,4.10
2022-10-19T18:34:25.212Z,4.38
2022-10-19T18:36:52.563Z,4.05
2022-10-19T18:39:21.489Z,4.57
2022-10-19T18:41:52.219Z,4.75
2022-10-19T18:44:23.524Z,4.05
2022-10-19T18:46:53.069Z,4.55
2022-10-19T18:49:19.600Z,4.60
2022-10-19T18:51:52.351Z,4.45
2022-10-19T18:54:31.965Z,4.18
2022-10-19T18:56:58.653Z,4.30
2022-10-19T18:59:25.306Z,4.80
2022-10-19T19:01:54.878Z,6.15
2022-10-19T19:04:23.452Z,4.90
2022-10-19T19:06:49.933Z,3.78
2022-10-19T19:09:18.747Z,5.35
2022-10-19T19:11:45.572Z,4.65
2022-10-19T19:14:15.438Z,4.57
2022-10-19T19:16:43.483Z,4.22
2022-10-19T19:19:13.254Z,4.97
2022-10-19T19:21:43.609Z,4.20
2022-10-19T19:24:13.401Z,4.28
2022-10-19T19:26:47.418Z,4.10
2022-10-19T19:29:14.476Z,4.63
2022-10-19T19:31:41.235Z,4.20
2022-10-19T19:34:09.391Z,3.95
2022-10-19T19:36:38.189Z,4.00
2022-10-19T19:39:05.963Z,4.20
2022-10-19T19:41:34.056Z,3.80
2022-10-19T19:44:01.080Z,3.85
2022-10-19T19:46:27.967Z,4.20
2022-10-19T19:49:00.910Z,4.10
2022-10-19T19:51:28.914Z,3.97
2022-10-19T19:53:55.855Z,4.28
2022-10-19T19:56:22.567Z,4.25
2022-10-19T19:58:54.633Z,4.15
2022-10-19T20:01:21.860Z,4.15
2022-10-19T20:03:48.711Z,4.07
2022-10-19T20:06:25.784Z,4.28
2022-10-19T20:08:58.920Z,4.13
2022-10-19T20:11:29.438Z,4.15
2022-10-19T20:13:56.453Z,4.32
2022-10-19T20:16:29.331Z,4.05
2022-10-19T20:19:00.842Z,4.63
2022-10-19T20:21:27.709Z,3.90
2022-10-19T20:23:54.415Z,4.07
2022-10-19T20:26:23.187Z,4.10
2022-10-19T20:28:50.214Z,4.32
2022-10-19T20:31:17.177Z,4.00
2022-10-19T20:33:44.906Z,4.68
2022-10-19T20:36:12.668Z,3.92
2022-10-19T20:38:40.307Z,3.88
2022-10-19T20:41:09.068Z,4.72
2022-10-19T20:43:38.302Z,4.40
2022-10-19T20:46:08.285Z,4.63
2022-10-19T20:48:34.835Z,4.18
2022-10-19T20:51:16.569Z,4.75
2022-10-19T20:53:46.316Z,5.32
2022-10-19T20:56:15.063Z,4.25
2022-10-19T20:58:43.500Z,5.05
2022-10-19T21:01:16.105Z,4.88
2022-10-19T21:03:48.018Z,4.93
2022-10-19T21:06:16.126Z,4.47
2022-10-19T21:08:42.721Z,4.68
2022-10-19T21:11:23.620Z,4.97
2022-10-19T21:13:54.837Z,4.93
2022-10-19T21:16:23.123Z,5.18
2022-10-19T21:18:50.383Z,4.85
2022-10-19T21:21:29.000Z,5.47
2022-10-19T21:24:06.472Z,4.93
2022-10-19T21:26:34.999Z,5.97
2022-10-19T21:29:06.217Z,5.22
2022-10-19T21:31:32.824Z,5.32
2022-10-19T21:33:59.316Z,5.43
2022-10-19T21:36:25.759Z,4.93
2022-10-19T21:38:52.241Z,5.35
2022-10-19T21:41:26.210Z,4.65
2022-10-19T21:43:54.546Z,4.93
2022-10-19T21:46:22.366Z,4.75
2022-10-19T21:48:50.118Z,5.00
2022-10-19T21:51:21.160Z,5.20
2022-10-19T21:53:47.777Z,5.72
2022-10-19T21:56:15.876Z,4.82
2022-10-19T21:58:46.840Z,4.85
2022-10-19T22:01:13.825Z,4.97
2022-10-19T22:03:40.567Z,5.40
2022-10-19T22:06:07.746Z,5.03
2022-10-19T22:08:34.437Z,5.43
2022-10-19T22:11:08.271Z,5.47
2022-10-19T22:13:35.839Z,5.30
2022-10-19T22:16:29.557Z,5.97
2022-10-19T22:18:56.743Z,5.10
2022-10-19T22:21:25.960Z,5.53
2022-10-19T22:23:54.427Z,6.00
2022-10-19T22:26:29.773Z,6.05
2022-10-19T22:29:00.581Z,6.05
2022-10-19T22:31:29.154Z,6.85
2022-10-19T22:33:55.889Z,6.17
2022-10-19T22:36:22.421Z,6.78
2022-10-19T22:38:48.938Z,6.50
2022-10-19T22:41:17.871Z,6.03
2022-10-19T22:43:44.437Z,6.75
2022-10-19T22:46:10.932Z,6.40
2022-10-19T22:48:37.439Z,7.35
2022-10-19T22:51:04.060Z,7.07
2022-10-19T22:53:30.833Z,7.53
2022-10-19T22:55:57.332Z,6.93
2022-10-19T22:58:23.849Z,6.85
2022-10-19T23:01:06.519Z,7.78
2022-10-19T23:03:33.561Z,8.02
2022-10-19T23:06:03.428Z,8.15
2022-10-19T23:08:37.848Z,7.97
2022-10-19T23:11:04.738Z,8.05
2022-10-19T23:13:31.883Z,8.13
2022-10-19T23:15:58.384Z,8.75
2022-10-19T23:18:24.861Z,8.07
2022-10-19T23:23:27.512Z,8.48
2022-10-19T23:26:12.210Z,8.25
2022-10-19T23:28:43.280Z,8.35
2022-10-19T23:31:30.723Z,8.93
2022-10-19T23:33:57.375Z,8.93
2022-10-19T23:36:28.848Z,8.27
2022-10-19T23:38:57.181Z,7.97
2022-10-19T23:41:23.813Z,8.50
2022-10-19T23:43:50.436Z,9.02
2022-10-19T23:46:19.364Z,8.70
2022-10-19T23:48:46.087Z,8.85
2022-10-19T23:51:15.966Z,8.73
2022-10-19T23:53:44.753Z,8.85
2022-10-19T23:56:20.601Z,8.60
2022-10-19T23:58:47.682Z,8.40
